首页
METAR-TAF:

METAR-TAF

机场 :

伯灵顿, 艾奥瓦州, 美国

纬度: 40-46-22N, 经度: 091-07-31W, 海拔: 212米

当前天气观测

该预报发布于28分钟前的00:53 UTC
风速5节,风向
温度 -2°C
湿度 69%
气压 1018 hPa
能見度: 16.1公里
天空无云

METAR: KBRL 140053Z AUTO 19005KT 10SM CLR M02/M07 A3006 RMK AO2 SLP189 T10171072

时间: 19:21 (01:21 UTC)

预报

该预报发布于2小时和1分钟前的23:20 UTC
预报有效从14日的 00点(UTC)到 14日的 24点(UTC)
风速8节,风向南转西南
能見度: 10公里
多云层高于5000英尺
阴天层高于12000英尺
从 14日的 0600点(UTC)
风速5节,风向西
能見度: 10公里
多云层高于4000英尺
从 14日的 1500点(UTC)
风速9节,风向西转西北
能見度: 10公里
散云层高于5000英尺

TAF: KBRL 132320Z 1400/1424 20008KT P6SM BKN050 OVC120 FM140600 28005KT P6SM BKN040 FM141500 30009KT P6SM SCT050

超过4000个机场的气象观测和天气预报(METAR&TAF报告)。

可查询的气象台以黄色和红色小点在地图上表示。

将鼠标移到小点上方,可查看气象台名称。

然后点击查看天气观测和预报。

如需切换地图:点击带黑十字的绿色按钮放大地图;点击带横线的绿色按钮缩小地图;或者点击绿色箭头查看邻近地区的地图。


METAR-TAF: